createdAt,value
2022-12-20T00:02:08.547Z,40.10
2022-12-20T00:04:40.642Z,40.10
2022-12-20T00:07:11.828Z,40.20
2022-12-20T00:09:46.977Z,40.40
2022-12-20T00:12:18.852Z,40.50
2022-12-20T00:14:53.648Z,40.70
2022-12-20T00:17:33.986Z,40.60
2022-12-20T00:20:04.850Z,40.50
2022-12-20T00:22:36.383Z,40.60
2022-12-20T00:25:11.125Z,40.30
2022-12-20T00:27:41.163Z,40.10
2022-12-20T00:30:11.380Z,40.40
2022-12-20T00:32:40.276Z,39.90
2022-12-20T00:35:10.085Z,39.80
2022-12-20T00:37:38.890Z,39.70
2022-12-20T00:40:10.770Z,39.80
2022-12-20T00:42:39.491Z,39.60
2022-12-20T00:45:09.543Z,39.60
2022-12-20T00:47:38.195Z,39.40
2022-12-20T00:50:08.862Z,39.60
2022-12-20T00:52:37.595Z,39.40
2022-12-20T00:55:08.469Z,39.70
2022-12-20T00:57:37.184Z,39.60
2022-12-20T01:00:07.606Z,39.80
2022-12-20T01:02:36.589Z,39.70
2022-12-20T01:05:06.236Z,39.90
2022-12-20T01:07:35.234Z,39.80
2022-12-20T01:10:03.926Z,40.00
2022-12-20T01:12:33.974Z,40.10
2022-12-20T01:15:02.575Z,40.10
2022-12-20T01:17:31.312Z,40.00
2022-12-20T01:20:00.218Z,40.00
2022-12-20T01:22:28.860Z,40.00
2022-12-20T01:24:57.580Z,40.00
2022-12-20T01:27:26.300Z,39.80
2022-12-20T01:29:56.465Z,39.90
2022-12-20T01:32:25.198Z,39.70
2022-12-20T01:34:55.835Z,39.70
2022-12-20T01:37:24.375Z,39.80
2022-12-20T01:39:53.167Z,39.90
2022-12-20T01:42:21.985Z,39.80
2022-12-20T01:45:01.501Z,39.90
2022-12-20T01:47:35.930Z,39.70
2022-12-20T01:50:09.205Z,39.70
2022-12-20T01:52:42.111Z,39.70
2022-12-20T01:55:18.973Z,39.70
2022-12-20T01:57:53.868Z,40.60
2022-12-20T02:00:24.566Z,39.80
2022-12-20T02:02:54.328Z,39.90
2022-12-20T02:05:25.091Z,39.90
2022-12-20T02:07:57.806Z,39.90
2022-12-20T02:10:38.805Z,40.40
2022-12-20T02:13:16.764Z,39.90
2022-12-20T02:15:56.223Z,39.90
2022-12-20T02:18:33.838Z,39.70
2022-12-20T02:21:25.618Z,39.70
2022-12-20T02:24:47.372Z,39.80
2022-12-20T02:27:59.285Z,39.60
2022-12-20T02:30:36.120Z,39.80
2022-12-20T02:33:08.504Z,39.80
2022-12-20T02:35:39.921Z,40.10
2022-12-20T02:38:29.809Z,40.20
2022-12-20T02:41:05.121Z,40.00
2022-12-20T02:43:54.648Z,40.20
2022-12-20T02:46:27.908Z,40.20
2022-12-20T02:49:02.117Z,40.20
2022-12-20T02:51:33.586Z,40.20
2022-12-20T02:54:03.621Z,40.10
2022-12-20T02:56:38.048Z,40.40
2022-12-20T02:59:15.564Z,40.60
2022-12-20T03:01:51.106Z,40.80
2022-12-20T03:04:24.868Z,40.60
2022-12-20T03:07:01.851Z,40.60
2022-12-20T03:09:33.069Z,40.80
2022-12-20T03:12:01.889Z,40.60
2022-12-20T03:14:30.531Z,40.90
2022-12-20T03:17:01.013Z,41.00
2022-12-20T03:19:29.890Z,41.00
2022-12-20T03:21:58.790Z,41.00
2022-12-20T03:24:27.688Z,40.90
2022-12-20T03:26:56.363Z,40.90
2022-12-20T03:29:25.018Z,41.40
2022-12-20T03:31:53.932Z,41.70
2022-12-20T03:34:24.393Z,41.70
2022-12-20T03:36:53.151Z,41.70
2022-12-20T03:39:21.800Z,41.70
2022-12-20T03:41:50.439Z,41.70
2022-12-20T03:44:19.265Z,41.50
2022-12-20T03:46:48.049Z,41.40
2022-12-20T03:49:17.006Z,41.30
2022-12-20T03:51:47.012Z,41.40
2022-12-20T03:54:15.595Z,41.30
2022-12-20T03:56:44.196Z,41.20
2022-12-20T03:59:12.699Z,41.10
2022-12-20T04:01:41.522Z,41.00
2022-12-20T04:04:13.983Z,41.00
2022-12-20T04:06:43.319Z,41.00
2022-12-20T04:09:13.301Z,41.00
2022-12-20T04:11:41.960Z,40.80
2022-12-20T04:14:10.709Z,40.70
2022-12-20T04:16:39.962Z,40.70
2022-12-20T04:19:08.697Z,41.20
2022-12-20T04:21:37.983Z,40.50
2022-12-20T04:24:08.217Z,40.60
2022-12-20T04:26:39.724Z,40.40
2022-12-20T04:29:08.584Z,40.50
2022-12-20T04:31:37.376Z,40.60
2022-12-20T04:34:06.540Z,40.60
2022-12-20T04:36:35.302Z,40.60
2022-12-20T04:39:03.945Z,40.60
2022-12-20T04:41:32.525Z,41.20
2022-12-20T04:44:02.609Z,40.70
2022-12-20T04:46:31.350Z,40.60
2022-12-20T04:49:00.239Z,40.70
2022-12-20T04:51:29.550Z,40.90
2022-12-20T04:53:57.496Z,41.00
2022-12-20T04:56:29.439Z,40.90
2022-12-20T04:59:02.629Z,40.80
2022-12-20T05:01:31.394Z,40.80
2022-12-20T05:04:00.280Z,40.80
2022-12-20T05:06:28.989Z,41.00
2022-12-20T05:08:57.573Z,41.20
2022-12-20T05:11:26.182Z,41.40
2022-12-20T05:13:54.951Z,41.50
2022-12-20T05:16:24.982Z,41.40
2022-12-20T05:18:54.773Z,41.60
2022-12-20T05:21:40.871Z,41.70
2022-12-20T05:24:28.555Z,41.60
2022-12-20T05:26:57.689Z,41.60
2022-12-20T05:29:26.425Z,41.70
2022-12-20T05:31:56.562Z,41.60
2022-12-20T05:34:25.889Z,41.70
2022-12-20T05:36:54.611Z,41.50
2022-12-20T05:39:23.213Z,41.80
2022-12-20T05:41:51.726Z,42.20
2022-12-20T05:44:22.488Z,42.40
2022-12-20T05:46:51.107Z,42.70
2022-12-20T05:49:21.145Z,42.90
2022-12-20T05:51:49.918Z,43.00
2022-12-20T05:54:18.808Z,43.10
2022-12-20T05:56:47.370Z,43.20
2022-12-20T05:59:17.901Z,43.20
2022-12-20T06:01:46.553Z,43.30
2022-12-20T06:04:15.318Z,42.90
2022-12-20T06:06:45.362Z,42.60
2022-12-20T06:09:14.052Z,42.60
2022-12-20T06:11:42.649Z,42.40
2022-12-20T06:14:11.641Z,42.30
2022-12-20T06:16:40.333Z,42.00
2022-12-20T06:19:09.202Z,42.00
2022-12-20T06:21:37.748Z,42.10
2022-12-20T06:24:08.518Z,41.90
2022-12-20T06:26:37.272Z,42.00
2022-12-20T06:29:10.467Z,42.00
2022-12-20T06:31:41.780Z,41.70
2022-12-20T06:34:11.098Z,41.90
2022-12-20T06:36:40.734Z,42.00
2022-12-20T06:39:14.787Z,42.70
2022-12-20T06:41:43.961Z,42.80
2022-12-20T06:44:15.045Z,42.60
2022-12-20T06:46:44.479Z,42.70
2022-12-20T06:49:13.672Z,42.50
2022-12-20T06:51:42.725Z,42.20
2022-12-20T06:54:15.147Z,42.40
2022-12-20T06:56:46.286Z,42.50
2022-12-20T06:59:15.491Z,42.70
2022-12-20T07:01:46.498Z,42.60
2022-12-20T07:04:15.659Z,42.60
2022-12-20T07:06:44.788Z,42.70
2022-12-20T07:09:15.192Z,42.60
2022-12-20T07:11:45.851Z,42.40
2022-12-20T07:14:14.721Z,42.10
2022-12-20T07:16:45.949Z,42.00
2022-12-20T07:19:18.277Z,42.00
2022-12-20T07:21:48.991Z,42.20
2022-12-20T07:24:19.333Z,42.20
2022-12-20T07:26:48.320Z,42.10
2022-12-20T07:29:17.152Z,41.80
2022-12-20T07:31:47.799Z,41.80
2022-12-20T07:34:18.757Z,41.60
2022-12-20T07:36:49.808Z,41.50
2022-12-20T07:39:20.650Z,41.30
2022-12-20T07:41:49.454Z,41.20
2022-12-20T07:44:18.319Z,41.00
2022-12-20T07:46:47.248Z,41.10
2022-12-20T07:49:16.893Z,41.10
2022-12-20T07:51:51.565Z,41.40
2022-12-20T07:54:26.457Z,41.70
2022-12-20T07:57:04.470Z,42.20
2022-12-20T07:59:44.052Z,42.40
2022-12-20T08:02:22.416Z,43.00
2022-12-20T08:04:52.076Z,43.50
2022-12-20T08:07:21.217Z,43.70
2022-12-20T08:09:52.415Z,44.70
2022-12-20T08:12:22.912Z,44.80
2022-12-20T08:14:56.337Z,44.70
2022-12-20T08:17:25.698Z,44.40
2022-12-20T08:19:54.244Z,44.20
2022-12-20T08:22:23.200Z,43.50
2022-12-20T08:24:53.197Z,42.90
2022-12-20T08:27:21.827Z,42.50
2022-12-20T08:29:50.672Z,43.00
2022-12-20T08:32:19.159Z,42.90
2022-12-20T08:34:48.452Z,42.50
2022-12-20T08:37:18.589Z,42.20
2022-12-20T08:39:47.143Z,42.20
2022-12-20T08:42:17.152Z,41.80
2022-12-20T08:44:46.014Z,42.20
2022-12-20T08:47:14.525Z,41.80
2022-12-20T08:49:47.634Z,41.60
2022-12-20T08:52:17.125Z,41.70
2022-12-20T08:54:45.967Z,41.00
2022-12-20T08:57:16.197Z,40.30
2022-12-20T08:59:44.885Z,40.40
2022-12-20T09:02:13.907Z,39.80
2022-12-20T09:04:44.617Z,39.60
2022-12-20T09:07:13.662Z,39.10
2022-12-20T09:09:42.221Z,39.00
2022-12-20T09:12:10.810Z,38.70
2022-12-20T09:14:41.660Z,38.90
2022-12-20T09:17:10.378Z,39.30
2022-12-20T09:19:39.106Z,39.50
2022-12-20T09:22:08.826Z,40.30
2022-12-20T09:24:39.216Z,40.50
2022-12-20T09:27:07.681Z,40.90
2022-12-20T09:29:36.273Z,41.20
2022-12-20T09:32:06.858Z,41.30
2022-12-20T09:34:35.796Z,41.30
2022-12-20T09:37:04.273Z,41.40
2022-12-20T09:39:33.188Z,41.60
2022-12-20T09:42:01.902Z,41.30
2022-12-20T09:44:35.690Z,42.00
2022-12-20T09:47:16.183Z,42.00
2022-12-20T09:49:49.882Z,41.70
2022-12-20T09:52:48.921Z,41.30
2022-12-20T09:55:32.396Z,40.10
2022-12-20T09:58:22.102Z,39.50
2022-12-20T10:00:54.321Z,39.10
2022-12-20T10:03:30.536Z,39.20
2022-12-20T10:06:05.051Z,38.90
2022-12-20T10:08:51.344Z,39.30
2022-12-20T10:11:55.488Z,39.90
2022-12-20T10:14:54.733Z,40.60
2022-12-20T10:17:39.856Z,41.20
2022-12-20T10:20:38.027Z,41.30
2022-12-20T10:23:17.876Z,42.20
2022-12-20T10:25:51.676Z,42.00
2022-12-20T10:28:28.222Z,41.60
2022-12-20T10:31:06.948Z,40.80
2022-12-20T10:33:36.255Z,39.20
2022-12-20T10:36:27.139Z,39.10
2022-12-20T10:38:58.667Z,38.90
2022-12-20T10:41:29.998Z,38.70
2022-12-20T10:44:02.791Z,38.80
2022-12-20T10:46:41.761Z,38.30
2022-12-20T10:49:31.295Z,37.90
2022-12-20T10:52:04.853Z,38.80
2022-12-20T10:54:37.436Z,38.00
2022-12-20T10:57:21.138Z,38.10
2022-12-20T10:59:54.293Z,37.40
2022-12-20T11:02:38.782Z,36.90
2022-12-20T11:05:25.679Z,37.20
2022-12-20T11:10:47.756Z,37.60
2022-12-20T11:13:26.139Z,37.70
2022-12-20T11:16:01.826Z,38.00
2022-12-20T11:18:44.622Z,37.80
2022-12-20T11:21:29.925Z,38.10
2022-12-20T11:24:12.125Z,38.00
2022-12-20T11:27:03.241Z,38.40
2022-12-20T11:30:00.147Z,38.40
2022-12-20T11:32:49.112Z,38.30
2022-12-20T11:35:26.593Z,38.40
2022-12-20T11:38:11.436Z,38.30
2022-12-20T11:40:54.045Z,38.80
2022-12-20T11:44:15.591Z,38.90
2022-12-20T11:46:56.317Z,38.70
2022-12-20T11:49:52.251Z,39.20
2022-12-20T11:52:36.766Z,39.10
2022-12-20T11:55:21.389Z,38.90
2022-12-20T12:00:57.015Z,37.90
2022-12-20T12:03:34.719Z,37.60
2022-12-20T12:06:08.509Z,37.40
2022-12-20T12:08:48.275Z,37.20
2022-12-20T12:14:31.367Z,36.90
2022-12-20T12:17:11.263Z,36.80
2022-12-20T12:19:47.500Z,36.50
2022-12-20T12:22:25.978Z,36.30
2022-12-20T12:25:01.201Z,36.10
2022-12-20T12:27:30.288Z,36.90
2022-12-20T12:30:01.210Z,37.40
2022-12-20T12:32:38.085Z,37.80
2022-12-20T12:35:38.874Z,38.00
2022-12-20T12:38:31.270Z,38.10
2022-12-20T12:41:40.221Z,38.10
2022-12-20T12:44:38.578Z,37.60
2022-12-20T12:47:26.539Z,37.50
2022-12-20T12:49:57.790Z,38.20
2022-12-20T12:52:46.190Z,38.10
2022-12-20T12:55:39.249Z,37.40
2022-12-20T12:58:33.475Z,37.20
2022-12-20T13:01:08.286Z,37.30
2022-12-20T13:03:44.581Z,37.30
2022-12-20T13:07:25.494Z,37.60
2022-12-20T13:09:54.212Z,37.60
2022-12-20T13:12:58.923Z,37.40
2022-12-20T13:16:05.298Z,37.40
2022-12-20T13:18:34.206Z,37.30
2022-12-20T13:21:44.868Z,37.60
2022-12-20T13:24:38.077Z,38.30
2022-12-20T13:27:35.715Z,39.00
2022-12-20T13:30:29.130Z,39.20
2022-12-20T13:33:17.667Z,40.00
2022-12-20T13:36:02.499Z,39.90
2022-12-20T13:38:54.056Z,40.00
2022-12-20T13:41:41.764Z,39.90
2022-12-20T13:44:34.640Z,39.50
2022-12-20T13:47:27.381Z,40.20
2022-12-20T13:49:56.306Z,39.30
2022-12-20T13:52:31.519Z,37.90
2022-12-20T13:55:08.372Z,38.00
2022-12-20T13:57:46.458Z,37.90
2022-12-20T14:00:20.258Z,37.90
2022-12-20T14:02:49.106Z,37.90
2022-12-20T14:05:23.469Z,38.00
2022-12-20T14:08:01.093Z,38.10
2022-12-20T14:10:34.198Z,39.00
2022-12-20T14:13:03.845Z,39.50
2022-12-20T14:15:35.042Z,39.60
2022-12-20T14:18:17.023Z,40.00
2022-12-20T14:20:48.465Z,40.60
2022-12-20T14:23:21.769Z,40.70
2022-12-20T14:25:56.855Z,40.70
2022-12-20T14:28:36.732Z,40.60
2022-12-20T14:31:07.595Z,40.60
2022-12-20T14:33:39.679Z,40.40
2022-12-20T14:36:20.598Z,40.50
2022-12-20T14:38:51.503Z,40.50
2022-12-20T14:41:39.177Z,40.90
2022-12-20T14:44:19.270Z,41.30
2022-12-20T14:46:53.588Z,41.60
2022-12-20T14:49:30.909Z,41.70
2022-12-20T14:52:18.874Z,42.00
2022-12-20T14:55:13.206Z,42.10
2022-12-20T14:57:49.601Z,42.10
2022-12-20T15:00:25.661Z,41.90
2022-12-20T15:03:03.906Z,41.80
2022-12-20T15:05:53.366Z,41.40
2022-12-20T15:08:27.408Z,41.10
2022-12-20T15:11:01.679Z,41.00
2022-12-20T15:13:34.968Z,41.00
2022-12-20T15:16:06.261Z,41.00
2022-12-20T15:18:34.901Z,41.10
2022-12-20T15:21:15.489Z,41.10
2022-12-20T15:23:48.970Z,41.40
2022-12-20T15:26:20.129Z,41.20
2022-12-20T15:28:50.109Z,41.00
2022-12-20T15:31:30.770Z,41.00
2022-12-20T15:34:02.718Z,41.00
2022-12-20T15:36:33.675Z,40.90
2022-12-20T15:39:17.634Z,40.60
2022-12-20T15:41:49.862Z,40.60
2022-12-20T15:44:23.772Z,40.60
2022-12-20T15:46:53.562Z,40.80
2022-12-20T15:49:24.501Z,41.00
2022-12-20T15:51:56.230Z,41.10
2022-12-20T15:54:28.491Z,40.90
2022-12-20T15:56:58.845Z,41.00
2022-12-20T16:02:25.269Z,41.60
2022-12-20T16:04:55.439Z,42.00
2022-12-20T16:07:24.999Z,42.20
2022-12-20T16:09:53.983Z,42.50
2022-12-20T16:12:27.793Z,43.00
2022-12-20T16:14:58.116Z,43.40
2022-12-20T16:17:26.902Z,43.80
2022-12-20T16:19:55.558Z,43.90
2022-12-20T16:22:26.121Z,44.20
2022-12-20T16:24:54.795Z,44.40
2022-12-20T16:27:23.284Z,44.40
2022-12-20T16:29:51.764Z,44.80
2022-12-20T16:32:25.187Z,45.30
2022-12-20T16:34:54.086Z,46.00
2022-12-20T16:37:23.349Z,46.40
2022-12-20T16:39:51.893Z,47.80
2022-12-20T16:42:23.199Z,47.10
2022-12-20T16:44:54.140Z,46.90
2022-12-20T16:47:24.569Z,46.70
2022-12-20T16:49:53.953Z,46.50
2022-12-20T16:52:25.267Z,46.90
2022-12-20T16:54:53.781Z,47.80
2022-12-20T16:57:22.365Z,47.40
2022-12-20T16:59:50.784Z,47.90
2022-12-20T17:02:28.996Z,48.50
2022-12-20T17:04:58.063Z,48.80
2022-12-20T17:07:26.741Z,49.40
2022-12-20T17:10:10.825Z,48.50
2022-12-20T17:12:39.426Z,48.30
2022-12-20T17:15:16.293Z,48.00
2022-12-20T17:17:46.357Z,48.30
2022-12-20T17:20:16.505Z,48.70
2022-12-20T17:25:37.226Z,48.60
2022-12-20T17:28:06.306Z,48.40
2022-12-20T17:30:34.777Z,48.10
2022-12-20T17:33:04.869Z,47.50
2022-12-20T17:35:34.677Z,47.60
2022-12-20T17:38:03.092Z,47.50
2022-12-20T17:40:31.577Z,47.50
2022-12-20T17:43:00.040Z,47.40
2022-12-20T17:45:32.493Z,48.70
2022-12-20T17:48:01.316Z,49.40
2022-12-20T17:50:31.101Z,49.60
2022-12-20T17:53:00.094Z,49.30
2022-12-20T17:55:29.949Z,49.60
2022-12-20T17:57:58.473Z,49.00
2022-12-20T18:00:38.962Z,48.70
2022-12-20T18:03:12.659Z,47.90
2022-12-20T18:05:49.874Z,47.70
2022-12-20T18:08:18.373Z,48.00
2022-12-20T18:10:46.896Z,48.40
2022-12-20T18:13:15.371Z,48.10
2022-12-20T18:15:43.820Z,48.10
2022-12-20T18:18:12.214Z,48.00
2022-12-20T18:20:40.744Z,48.30
2022-12-20T18:23:10.711Z,48.20
2022-12-20T18:25:39.250Z,47.90
2022-12-20T18:28:08.083Z,47.60
2022-12-20T18:30:36.820Z,48.00
2022-12-20T18:33:05.364Z,46.80
2022-12-20T18:35:33.785Z,46.60
2022-12-20T18:38:02.371Z,46.20
2022-12-20T18:40:32.389Z,45.90
2022-12-20T18:43:05.883Z,45.80
2022-12-20T18:45:35.993Z,45.70
2022-12-20T18:48:04.625Z,45.70
2022-12-20T18:50:33.062Z,45.40
2022-12-20T18:53:01.919Z,46.10
2022-12-20T18:55:32.673Z,46.50
2022-12-20T18:58:01.208Z,46.60
2022-12-20T19:00:30.119Z,46.40
2022-12-20T19:03:02.324Z,46.10
2022-12-20T19:05:33.895Z,46.10
2022-12-20T19:08:02.809Z,46.10
2022-12-20T19:10:34.234Z,46.10
2022-12-20T19:13:06.048Z,45.90
2022-12-20T19:15:34.844Z,45.70
2022-12-20T19:18:03.969Z,45.50
2022-12-20T19:20:32.488Z,45.20
2022-12-20T19:23:01.060Z,44.80
2022-12-20T19:25:30.449Z,45.10
2022-12-20T19:28:00.524Z,45.10
2022-12-20T19:30:30.118Z,44.90
2022-12-20T19:32:58.884Z,45.00
2022-12-20T19:35:54.781Z,44.90
2022-12-20T19:38:16.124Z,44.80
2022-12-20T19:40:44.584Z,44.60
2022-12-20T19:43:14.615Z,44.50
2022-12-20T19:45:43.323Z,44.60
2022-12-20T19:48:11.879Z,44.60
2022-12-20T19:50:40.466Z,44.50
2022-12-20T19:53:10.705Z,44.10
2022-12-20T19:55:39.271Z,44.60
2022-12-20T19:58:07.760Z,44.90
2022-12-20T20:00:37.671Z,45.00
2022-12-20T20:03:07.853Z,44.90
2022-12-20T20:05:36.572Z,44.90
2022-12-20T20:08:05.643Z,45.20
2022-12-20T20:10:34.239Z,45.20
2022-12-20T20:13:03.055Z,45.20
2022-12-20T20:15:31.621Z,45.00
2022-12-20T20:18:04.624Z,44.80
2022-12-20T20:20:34.996Z,44.80
2022-12-20T20:23:03.605Z,44.80
2022-12-20T20:25:35.408Z,45.00
2022-12-20T20:28:04.819Z,45.00
2022-12-20T20:30:33.445Z,44.90
2022-12-20T20:33:03.485Z,44.70
2022-12-20T20:35:32.025Z,44.70
2022-12-20T20:38:00.692Z,45.00
2022-12-20T20:40:29.187Z,45.10
2022-12-20T20:42:58.212Z,44.90
2022-12-20T20:45:26.911Z,45.00
2022-12-20T20:47:55.510Z,44.80
2022-12-20T20:50:25.513Z,44.70
2022-12-20T20:52:54.017Z,44.70
2022-12-20T20:55:23.033Z,44.80
2022-12-20T20:57:51.623Z,44.70
2022-12-20T21:00:20.879Z,44.50
2022-12-20T21:02:49.701Z,44.40
2022-12-20T21:08:08.722Z,44.10
2022-12-20T21:10:38.225Z,44.10
2022-12-20T21:13:06.861Z,44.00
2022-12-20T21:15:35.632Z,44.00
2022-12-20T21:18:04.339Z,44.00
2022-12-20T21:20:32.888Z,44.00
2022-12-20T21:23:01.611Z,43.90
2022-12-20T21:25:32.056Z,43.90
2022-12-20T21:28:00.700Z,43.90
2022-12-20T21:30:29.250Z,44.00
2022-12-20T21:32:57.731Z,43.90
2022-12-20T21:35:27.191Z,43.80
2022-12-20T21:37:55.741Z,43.90
2022-12-20T21:40:24.295Z,44.00
2022-12-20T21:42:54.295Z,43.90
2022-12-20T21:45:22.791Z,43.90
2022-12-20T21:47:51.192Z,43.80
2022-12-20T21:50:19.711Z,43.90
2022-12-20T21:52:48.174Z,43.80
2022-12-20T21:55:16.874Z,43.80
2022-12-20T21:57:48.202Z,43.80
2022-12-20T22:00:19.919Z,43.90
2022-12-20T22:02:48.465Z,43.90
2022-12-20T22:05:17.193Z,44.50
2022-12-20T22:07:47.797Z,43.90
2022-12-20T22:10:16.486Z,43.90
2022-12-20T22:12:45.039Z,44.00
2022-12-20T22:15:13.841Z,43.90
2022-12-20T22:17:43.704Z,43.90
2022-12-20T22:20:13.074Z,44.00
2022-12-20T22:22:41.607Z,43.90
2022-12-20T22:25:11.093Z,43.90
2022-12-20T22:27:39.677Z,43.60
2022-12-20T22:30:10.244Z,43.60
2022-12-20T22:32:38.679Z,44.00
2022-12-20T22:35:09.907Z,43.90
2022-12-20T22:37:38.485Z,44.10
2022-12-20T22:40:08.944Z,44.10
2022-12-20T22:42:40.194Z,44.30
2022-12-20T22:45:10.742Z,44.30
2022-12-20T22:47:41.629Z,44.10
2022-12-20T22:50:12.850Z,44.20
2022-12-20T22:52:41.343Z,44.20
2022-12-20T22:55:11.218Z,44.30
2022-12-20T22:57:39.938Z,44.20
2022-12-20T23:00:13.380Z,44.10
2022-12-20T23:02:42.223Z,44.00
2022-12-20T23:05:13.934Z,44.00
2022-12-20T23:07:42.959Z,44.00
2022-12-20T23:10:34.719Z,43.90
2022-12-20T23:13:20.865Z,43.80
2022-12-20T23:15:49.908Z,44.00
2022-12-20T23:18:18.532Z,44.00
2022-12-20T23:21:09.958Z,44.00
2022-12-20T23:23:39.081Z,44.40
2022-12-20T23:26:12.383Z,45.20
2022-12-20T23:28:41.231Z,44.70
2022-12-20T23:31:11.451Z,44.80
2022-12-20T23:33:40.333Z,44.70
2022-12-20T23:36:12.573Z,44.70
2022-12-20T23:38:41.061Z,44.70
2022-12-20T23:41:10.066Z,45.10
2022-12-20T23:43:39.087Z,45.60
2022-12-20T23:46:12.447Z,45.90
2022-12-20T23:48:41.457Z,45.90
2022-12-20T23:51:12.211Z,45.90
2022-12-20T23:53:41.103Z,46.00
2022-12-20T23:56:13.788Z,46.00
2022-12-20T23:58:43.475Z,46.00
